sensor_id;sensor_type;location;lat;lon;timestamp;P1;durP1;ratioP1;P2;durP2;ratioP2
21091;SDS011;10704;42.678;23.288;2022-09-17T00:00:42;15.15;;;6.85;;
21091;SDS011;10704;42.678;23.288;2022-09-17T00:03:08;17.13;;;7.43;;
21091;SDS011;10704;42.678;23.288;2022-09-17T00:05:35;12.88;;;8.20;;
21091;SDS011;10704;42.678;23.288;2022-09-17T00:08:06;13.40;;;7.97;;
21091;SDS011;10704;42.678;23.288;2022-09-17T00:10:37;13.73;;;8.27;;
21091;SDS011;10704;42.678;23.288;2022-09-17T00:13:06;13.38;;;7.35;;
21091;SDS011;10704;42.678;23.288;2022-09-17T00:15:38;20.88;;;7.60;;
21091;SDS011;10704;42.678;23.288;2022-09-17T00:18:05;14.48;;;8.27;;
21091;SDS011;10704;42.678;23.288;2022-09-17T00:20:31;17.65;;;9.00;;
21091;SDS011;10704;42.678;23.288;2022-09-17T00:22:57;15.95;;;8.55;;
21091;SDS011;10704;42.678;23.288;2022-09-17T00:25:23;15.20;;;7.97;;
21091;SDS011;10704;42.678;23.288;2022-09-17T00:27:49;17.75;;;8.13;;
21091;SDS011;10704;42.678;23.288;2022-09-17T00:30:15;18.20;;;8.30;;
21091;SDS011;10704;42.678;23.288;2022-09-17T00:32:41;16.73;;;7.43;;
21091;SDS011;10704;42.678;23.288;2022-09-17T00:35:09;13.35;;;7.75;;
21091;SDS011;10704;42.678;23.288;2022-09-17T00:37:35;13.05;;;7.78;;
21091;SDS011;10704;42.678;23.288;2022-09-17T00:40:01;14.10;;;7.68;;
21091;SDS011;10704;42.678;23.288;2022-09-17T00:42:27;16.77;;;7.65;;
21091;SDS011;10704;42.678;23.288;2022-09-17T00:44:54;16.95;;;8.23;;
21091;SDS011;10704;42.678;23.288;2022-09-17T00:47:33;10.40;;;6.88;;
21091;SDS011;10704;42.678;23.288;2022-09-17T00:50:01;14.77;;;6.50;;
21091;SDS011;10704;42.678;23.288;2022-09-17T00:52:38;12.10;;;5.82;;
21091;SDS011;10704;42.678;23.288;2022-09-17T00:57:48;11.27;;;7.15;;
21091;SDS011;10704;42.678;23.288;2022-09-17T01:00:17;12.50;;;5.95;;
21091;SDS011;10704;42.678;23.288;2022-09-17T01:02:44;19.10;;;6.95;;
21091;SDS011;10704;42.678;23.288;2022-09-17T01:05:10;10.95;;;6.28;;
21091;SDS011;10704;42.678;23.288;2022-09-17T01:11:05;14.20;;;7.20;;
21091;SDS011;10704;42.678;23.288;2022-09-17T01:13:48;11.05;;;6.72;;
21091;SDS011;10704;42.678;23.288;2022-09-17T01:16:50;13.80;;;6.70;;
21091;SDS011;10704;42.678;23.288;2022-09-17T01:22:36;13.23;;;6.72;;
21091;SDS011;10704;42.678;23.288;2022-09-17T01:25:23;9.90;;;6.35;;
21091;SDS011;10704;42.678;23.288;2022-09-17T01:33:56;13.43;;;5.75;;
21091;SDS011;10704;42.678;23.288;2022-09-17T01:50:28;12.55;;;6.47;;
21091;SDS011;10704;42.678;23.288;2022-09-17T01:53:00;15.45;;;6.47;;
21091;SDS011;10704;42.678;23.288;2022-09-17T01:55:30;14.60;;;6.82;;
21091;SDS011;10704;42.678;23.288;2022-09-17T01:58:13;14.45;;;6.82;;
21091;SDS011;10704;42.678;23.288;2022-09-17T02:00:45;10.05;;;5.47;;
21091;SDS011;10704;42.678;23.288;2022-09-17T02:06:24;12.00;;;6.45;;
21091;SDS011;10704;42.678;23.288;2022-09-17T02:09:00;12.27;;;6.68;;
21091;SDS011;10704;42.678;23.288;2022-09-17T02:11:33;13.88;;;6.00;;
21091;SDS011;10704;42.678;23.288;2022-09-17T02:14:05;13.38;;;7.25;;
21091;SDS011;10704;42.678;23.288;2022-09-17T02:16:50;13.60;;;6.97;;
21091;SDS011;10704;42.678;23.288;2022-09-17T02:19:23;16.42;;;7.72;;
21091;SDS011;10704;42.678;23.288;2022-09-17T02:22:02;18.02;;;7.05;;
21091;SDS011;10704;42.678;23.288;2022-09-17T02:24:34;16.45;;;7.18;;
21091;SDS011;10704;42.678;23.288;2022-09-17T02:27:18;12.55;;;6.80;;
21091;SDS011;10704;42.678;23.288;2022-09-17T02:30:01;14.30;;;6.93;;
21091;SDS011;10704;42.678;23.288;2022-09-17T02:32:28;13.45;;;6.63;;
21091;SDS011;10704;42.678;23.288;2022-09-17T02:34:54;12.82;;;6.47;;
21091;SDS011;10704;42.678;23.288;2022-09-17T02:37:20;14.80;;;6.15;;
21091;SDS011;10704;42.678;23.288;2022-09-17T02:39:46;11.45;;;5.65;;
21091;SDS011;10704;42.678;23.288;2022-09-17T02:46:14;11.18;;;6.72;;
21091;SDS011;10704;42.678;23.288;2022-09-17T02:56:56;10.55;;;6.78;;
21091;SDS011;10704;42.678;23.288;2022-09-17T02:59:34;13.48;;;7.07;;
21091;SDS011;10704;42.678;23.288;2022-09-17T03:02:12;10.63;;;6.93;;
21091;SDS011;10704;42.678;23.288;2022-09-17T03:04:41;17.20;;;7.93;;
21091;SDS011;10704;42.678;23.288;2022-09-17T03:07:11;13.15;;;7.22;;
21091;SDS011;10704;42.678;23.288;2022-09-17T03:09:38;17.05;;;7.85;;
21091;SDS011;10704;42.678;23.288;2022-09-17T03:12:04;12.15;;;6.40;;
21091;SDS011;10704;42.678;23.288;2022-09-17T03:14:31;13.52;;;5.95;;
21091;SDS011;10704;42.678;23.288;2022-09-17T03:16:57;12.38;;;6.00;;
21091;SDS011;10704;42.678;23.288;2022-09-17T03:19:23;12.55;;;6.72;;
21091;SDS011;10704;42.678;23.288;2022-09-17T03:21:48;13.48;;;7.45;;
21091;SDS011;10704;42.678;23.288;2022-09-17T03:24:14;14.75;;;6.43;;
21091;SDS011;10704;42.678;23.288;2022-09-17T03:26:40;15.68;;;6.53;;
21091;SDS011;10704;42.678;23.288;2022-09-17T03:29:06;12.32;;;5.90;;
21091;SDS011;10704;42.678;23.288;2022-09-17T03:31:32;13.50;;;6.28;;
21091;SDS011;10704;42.678;23.288;2022-09-17T03:33:58;16.40;;;7.18;;
21091;SDS011;10704;42.678;23.288;2022-09-17T03:36:24;12.40;;;6.85;;
21091;SDS011;10704;42.678;23.288;2022-09-17T03:38:56;12.00;;;7.10;;
21091;SDS011;10704;42.678;23.288;2022-09-17T03:41:23;12.30;;;6.45;;
21091;SDS011;10704;42.678;23.288;2022-09-17T03:43:49;10.93;;;6.82;;
21091;SDS011;10704;42.678;23.288;2022-09-17T03:46:16;16.30;;;7.45;;
21091;SDS011;10704;42.678;23.288;2022-09-17T03:48:44;13.35;;;6.97;;
21091;SDS011;10704;42.678;23.288;2022-09-17T03:51:11;11.60;;;7.28;;
21091;SDS011;10704;42.678;23.288;2022-09-17T03:53:37;12.73;;;6.13;;
21091;SDS011;10704;42.678;23.288;2022-09-17T03:56:04;13.77;;;6.53;;
21091;SDS011;10704;42.678;23.288;2022-09-17T03:58:31;11.13;;;6.13;;
21091;SDS011;10704;42.678;23.288;2022-09-17T04:00:57;11.77;;;6.60;;
21091;SDS011;10704;42.678;23.288;2022-09-17T04:03:24;13.98;;;8.18;;
21091;SDS011;10704;42.678;23.288;2022-09-17T04:05:52;14.02;;;7.05;;
21091;SDS011;10704;42.678;23.288;2022-09-17T04:08:18;13.30;;;7.60;;
21091;SDS011;10704;42.678;23.288;2022-09-17T04:10:44;12.43;;;6.47;;
21091;SDS011;10704;42.678;23.288;2022-09-17T04:13:11;11.20;;;6.65;;
21091;SDS011;10704;42.678;23.288;2022-09-17T04:15:38;14.40;;;6.72;;
21091;SDS011;10704;42.678;23.288;2022-09-17T04:18:04;13.95;;;6.85;;
21091;SDS011;10704;42.678;23.288;2022-09-17T04:20:30;13.52;;;7.03;;
21091;SDS011;10704;42.678;23.288;2022-09-17T04:22:56;12.23;;;7.10;;
21091;SDS011;10704;42.678;23.288;2022-09-17T04:25:22;11.15;;;6.22;;
21091;SDS011;10704;42.678;23.288;2022-09-17T04:27:48;14.25;;;7.13;;
21091;SDS011;10704;42.678;23.288;2022-09-17T04:30:14;23.02;;;7.47;;
21091;SDS011;10704;42.678;23.288;2022-09-17T04:32:42;10.68;;;6.57;;
21091;SDS011;10704;42.678;23.288;2022-09-17T04:35:08;12.85;;;7.07;;
21091;SDS011;10704;42.678;23.288;2022-09-17T04:37:35;15.77;;;8.45;;
21091;SDS011;10704;42.678;23.288;2022-09-17T04:40:02;13.02;;;7.65;;
21091;SDS011;10704;42.678;23.288;2022-09-17T04:42:28;19.55;;;9.07;;
21091;SDS011;10704;42.678;23.288;2022-09-17T04:44:54;18.40;;;8.57;;
21091;SDS011;10704;42.678;23.288;2022-09-17T04:47:20;18.52;;;9.40;;
21091;SDS011;10704;42.678;23.288;2022-09-17T04:49:46;12.20;;;7.35;;
21091;SDS011;10704;42.678;23.288;2022-09-17T04:52:12;16.52;;;8.63;;
21091;SDS011;10704;42.678;23.288;2022-09-17T04:54:39;15.05;;;6.63;;
21091;SDS011;10704;42.678;23.288;2022-09-17T04:57:05;11.10;;;6.55;;
21091;SDS011;10704;42.678;23.288;2022-09-17T04:59:31;10.85;;;5.28;;
21091;SDS011;10704;42.678;23.288;2022-09-17T05:01:57;11.52;;;4.10;;
21091;SDS011;10704;42.678;23.288;2022-09-17T05:04:22;9.30;;;3.38;;
21091;SDS011;10704;42.678;23.288;2022-09-17T05:06:48;9.57;;;2.78;;
21091;SDS011;10704;42.678;23.288;2022-09-17T05:09:14;11.82;;;3.22;;
21091;SDS011;10704;42.678;23.288;2022-09-17T05:11:40;13.63;;;3.53;;
21091;SDS011;10704;42.678;23.288;2022-09-17T05:14:06;9.85;;;3.42;;
21091;SDS011;10704;42.678;23.288;2022-09-17T05:16:32;7.53;;;3.00;;
21091;SDS011;10704;42.678;23.288;2022-09-17T05:18:59;8.68;;;3.20;;
21091;SDS011;10704;42.678;23.288;2022-09-17T05:21:25;8.75;;;3.35;;
21091;SDS011;10704;42.678;23.288;2022-09-17T05:23:51;10.65;;;3.00;;
21091;SDS011;10704;42.678;23.288;2022-09-17T05:26:17;11.52;;;2.85;;
21091;SDS011;10704;42.678;23.288;2022-09-17T05:28:42;7.30;;;2.45;;
21091;SDS011;10704;42.678;23.288;2022-09-17T05:31:09;5.72;;;2.58;;
21091;SDS011;10704;42.678;23.288;2022-09-17T05:33:35;12.93;;;3.25;;
21091;SDS011;10704;42.678;23.288;2022-09-17T05:36:00;12.80;;;2.90;;
21091;SDS011;10704;42.678;23.288;2022-09-17T05:38:26;9.13;;;2.75;;
21091;SDS011;10704;42.678;23.288;2022-09-17T05:40:52;8.93;;;2.75;;
21091;SDS011;10704;42.678;23.288;2022-09-17T05:43:18;7.63;;;2.65;;
21091;SDS011;10704;42.678;23.288;2022-09-17T05:45:44;9.48;;;3.42;;
21091;SDS011;10704;42.678;23.288;2022-09-17T05:48:11;10.77;;;3.40;;
21091;SDS011;10704;42.678;23.288;2022-09-17T05:50:38;8.40;;;3.50;;
21091;SDS011;10704;42.678;23.288;2022-09-17T05:53:12;13.20;;;4.60;;
21091;SDS011;10704;42.678;23.288;2022-09-17T05:55:38;9.48;;;3.38;;
21091;SDS011;10704;42.678;23.288;2022-09-17T05:58:08;5.80;;;2.40;;
21091;SDS011;10704;42.678;23.288;2022-09-17T06:00:38;7.85;;;2.40;;
21091;SDS011;10704;42.678;23.288;2022-09-17T06:03:07;7.38;;;2.28;;
21091;SDS011;10704;42.678;23.288;2022-09-17T06:05:37;7.28;;;2.95;;
21091;SDS011;10704;42.678;23.288;2022-09-17T06:08:03;11.05;;;4.07;;
21091;SDS011;10704;42.678;23.288;2022-09-17T06:10:30;10.57;;;4.07;;
21091;SDS011;10704;42.678;23.288;2022-09-17T06:12:56;12.63;;;4.55;;
21091;SDS011;10704;42.678;23.288;2022-09-17T06:15:24;14.32;;;5.07;;
21091;SDS011;10704;42.678;23.288;2022-09-17T06:17:50;14.02;;;6.80;;
21091;SDS011;10704;42.678;23.288;2022-09-17T06:20:17;12.05;;;4.80;;
21091;SDS011;10704;42.678;23.288;2022-09-17T06:22:43;11.15;;;4.18;;
21091;SDS011;10704;42.678;23.288;2022-09-17T06:25:09;10.00;;;4.50;;
21091;SDS011;10704;42.678;23.288;2022-09-17T06:27:36;11.52;;;4.57;;
21091;SDS011;10704;42.678;23.288;2022-09-17T06:30:03;10.88;;;4.38;;
21091;SDS011;10704;42.678;23.288;2022-09-17T06:32:29;8.80;;;4.25;;
21091;SDS011;10704;42.678;23.288;2022-09-17T06:34:57;8.38;;;3.78;;
21091;SDS011;10704;42.678;23.288;2022-09-17T06:37:26;6.70;;;3.55;;
21091;SDS011;10704;42.678;23.288;2022-09-17T06:39:53;10.10;;;4.45;;
21091;SDS011;10704;42.678;23.288;2022-09-17T06:42:19;9.88;;;4.00;;
21091;SDS011;10704;42.678;23.288;2022-09-17T06:44:45;7.97;;;4.38;;
21091;SDS011;10704;42.678;23.288;2022-09-17T06:47:11;9.05;;;3.83;;
21091;SDS011;10704;42.678;23.288;2022-09-17T06:49:37;18.17;;;3.92;;
21091;SDS011;10704;42.678;23.288;2022-09-17T06:52:03;11.50;;;3.63;;
21091;SDS011;10704;42.678;23.288;2022-09-17T06:54:29;8.98;;;3.88;;
21091;SDS011;10704;42.678;23.288;2022-09-17T06:56:55;10.60;;;3.67;;
21091;SDS011;10704;42.678;23.288;2022-09-17T06:59:21;11.35;;;3.38;;
21091;SDS011;10704;42.678;23.288;2022-09-17T07:01:47;10.77;;;5.57;;
21091;SDS011;10704;42.678;23.288;2022-09-17T07:04:13;7.85;;;3.05;;
21091;SDS011;10704;42.678;23.288;2022-09-17T07:06:39;10.90;;;4.15;;
21091;SDS011;10704;42.678;23.288;2022-09-17T07:09:07;9.00;;;4.85;;
21091;SDS011;10704;42.678;23.288;2022-09-17T07:11:33;12.75;;;3.72;;
21091;SDS011;10704;42.678;23.288;2022-09-17T07:13:59;7.43;;;3.15;;
21091;SDS011;10704;42.678;23.288;2022-09-17T07:16:25;9.98;;;3.90;;
21091;SDS011;10704;42.678;23.288;2022-09-17T07:18:52;13.77;;;4.20;;
21091;SDS011;10704;42.678;23.288;2022-09-17T07:21:18;10.95;;;3.90;;
21091;SDS011;10704;42.678;23.288;2022-09-17T07:23:43;8.45;;;3.88;;
21091;SDS011;10704;42.678;23.288;2022-09-17T07:26:14;13.10;;;4.45;;
21091;SDS011;10704;42.678;23.288;2022-09-17T07:28:41;14.02;;;6.57;;
21091;SDS011;10704;42.678;23.288;2022-09-17T07:31:11;11.25;;;4.45;;
21091;SDS011;10704;42.678;23.288;2022-09-17T07:33:38;14.35;;;5.53;;
21091;SDS011;10704;42.678;23.288;2022-09-17T07:36:09;13.18;;;4.60;;
21091;SDS011;10704;42.678;23.288;2022-09-17T07:38:36;11.02;;;4.18;;
21091;SDS011;10704;42.678;23.288;2022-09-17T07:41:04;11.88;;;4.28;;
21091;SDS011;10704;42.678;23.288;2022-09-17T07:43:34;12.30;;;3.85;;
21091;SDS011;10704;42.678;23.288;2022-09-17T07:46:01;16.75;;;4.65;;
21091;SDS011;10704;42.678;23.288;2022-09-17T07:48:29;11.88;;;4.32;;
21091;SDS011;10704;42.678;23.288;2022-09-17T07:50:56;11.18;;;4.38;;
21091;SDS011;10704;42.678;23.288;2022-09-17T07:53:22;11.80;;;4.50;;
21091;SDS011;10704;42.678;23.288;2022-09-17T07:58:28;10.80;;;4.85;;
21091;SDS011;10704;42.678;23.288;2022-09-17T08:01:02;7.68;;;4.07;;
21091;SDS011;10704;42.678;23.288;2022-09-17T08:03:31;15.75;;;4.40;;
21091;SDS011;10704;42.678;23.288;2022-09-17T08:06:11;8.57;;;4.05;;
21091;SDS011;10704;42.678;23.288;2022-09-17T08:08:39;8.18;;;3.53;;
21091;SDS011;10704;42.678;23.288;2022-09-17T08:11:10;11.60;;;4.00;;
21091;SDS011;10704;42.678;23.288;2022-09-17T08:13:37;11.88;;;5.75;;
21091;SDS011;10704;42.678;23.288;2022-09-17T08:16:05;9.85;;;4.25;;
21091;SDS011;10704;42.678;23.288;2022-09-17T08:18:37;11.52;;;4.15;;
21091;SDS011;10704;42.678;23.288;2022-09-17T08:21:04;8.82;;;3.58;;
21091;SDS011;10704;42.678;23.288;2022-09-17T08:23:33;8.65;;;2.88;;
21091;SDS011;10704;42.678;23.288;2022-09-17T08:26:00;7.22;;;2.63;;
21091;SDS011;10704;42.678;23.288;2022-09-17T08:28:27;6.82;;;2.60;;
21091;SDS011;10704;42.678;23.288;2022-09-17T08:30:58;8.50;;;2.72;;
21091;SDS011;10704;42.678;23.288;2022-09-17T08:33:34;9.20;;;3.17;;
21091;SDS011;10704;42.678;23.288;2022-09-17T08:36:02;5.93;;;2.58;;
21091;SDS011;10704;42.678;23.288;2022-09-17T08:38:29;6.68;;;2.55;;
21091;SDS011;10704;42.678;23.288;2022-09-17T08:43:50;5.30;;;2.30;;
21091;SDS011;10704;42.678;23.288;2022-09-17T08:46:44;8.82;;;2.50;;
21091;SDS011;10704;42.678;23.288;2022-09-17T09:09:02;9.25;;;2.42;;
21091;SDS011;10704;42.678;23.288;2022-09-17T09:18:21;7.43;;;2.75;;
21091;SDS011;10704;42.678;23.288;2022-09-17T09:20:51;8.32;;;2.92;;
21091;SDS011;10704;42.678;23.288;2022-09-17T09:23:26;10.40;;;3.22;;
21091;SDS011;10704;42.678;23.288;2022-09-17T09:26:08;11.40;;;3.50;;
21091;SDS011;10704;42.678;23.288;2022-09-17T10:01:07;12.77;;;7.20;;
21091;SDS011;10704;42.678;23.288;2022-09-17T10:03:40;15.05;;;6.63;;
21091;SDS011;10704;42.678;23.288;2022-09-17T10:06:10;11.95;;;6.25;;
21091;SDS011;10704;42.678;23.288;2022-09-17T10:08:42;9.65;;;6.03;;
21091;SDS011;10704;42.678;23.288;2022-09-17T10:11:27;16.98;;;6.05;;
21091;SDS011;10704;42.678;23.288;2022-09-17T10:17:41;14.48;;;7.15;;
21091;SDS011;10704;42.678;23.288;2022-09-17T10:20:15;12.25;;;6.75;;
21091;SDS011;10704;42.678;23.288;2022-09-17T10:22:42;16.80;;;7.05;;
21091;SDS011;10704;42.678;23.288;2022-09-17T10:34:34;14.73;;;6.53;;
21091;SDS011;10704;42.678;23.288;2022-09-17T10:37:01;17.67;;;7.32;;
21091;SDS011;10704;42.678;23.288;2022-09-17T10:39:36;10.88;;;7.18;;
21091;SDS011;10704;42.678;23.288;2022-09-17T10:42:16;14.90;;;8.05;;
21091;SDS011;10704;42.678;23.288;2022-09-17T10:44:53;18.95;;;8.43;;
21091;SDS011;10704;42.678;23.288;2022-09-17T10:47:22;17.92;;;7.88;;
21091;SDS011;10704;42.678;23.288;2022-09-17T10:53:58;15.95;;;8.02;;
21091;SDS011;10704;42.678;23.288;2022-09-17T10:56:31;14.95;;;8.23;;
21091;SDS011;10704;42.678;23.288;2022-09-17T11:02:56;9.45;;;5.03;;
21091;SDS011;10704;42.678;23.288;2022-09-17T11:05:22;9.50;;;4.65;;
21091;SDS011;10704;42.678;23.288;2022-09-17T11:20:04;11.68;;;3.70;;
21091;SDS011;10704;42.678;23.288;2022-09-17T11:28:12;12.55;;;6.32;;
21091;SDS011;10704;42.678;23.288;2022-09-17T11:36:19;8.15;;;3.88;;
21091;SDS011;10704;42.678;23.288;2022-09-17T11:38:51;8.18;;;4.32;;
21091;SDS011;10704;42.678;23.288;2022-09-17T11:41:29;8.55;;;4.50;;
21091;SDS011;10704;42.678;23.288;2022-09-17T11:54:24;6.30;;;2.95;;
21091;SDS011;10704;42.678;23.288;2022-09-17T12:09:31;11.35;;;4.15;;
21091;SDS011;10704;42.678;23.288;2022-09-17T12:12:16;4.07;;;2.50;;
21091;SDS011;10704;42.678;23.288;2022-09-17T12:24:11;8.98;;;4.30;;
21091;SDS011;10704;42.678;23.288;2022-09-17T12:48:37;4.80;;;1.60;;
21091;SDS011;10704;42.678;23.288;2022-09-17T12:57:46;1.33;;;0.70;;
21091;SDS011;10704;42.678;23.288;2022-09-17T13:00:14;1.50;;;0.65;;
21091;SDS011;10704;42.678;23.288;2022-09-17T13:08:15;2.25;;;0.70;;
21091;SDS011;10704;42.678;23.288;2022-09-17T13:17:31;2.28;;;0.90;;
21091;SDS011;10704;42.678;23.288;2022-09-17T13:23:32;1.40;;;0.70;;
21091;SDS011;10704;42.678;23.288;2022-09-17T13:29:57;2.92;;;0.90;;
21091;SDS011;10704;42.678;23.288;2022-09-17T13:38:03;2.10;;;0.70;;
21091;SDS011;10704;42.678;23.288;2022-09-17T13:40:30;3.90;;;0.70;;
21091;SDS011;10704;42.678;23.288;2022-09-17T13:54:21;3.33;;;1.00;;
21091;SDS011;10704;42.678;23.288;2022-09-17T14:06:46;5.70;;;2.25;;
21091;SDS011;10704;42.678;23.288;2022-09-17T14:09:44;5.53;;;2.40;;
21091;SDS011;10704;42.678;23.288;2022-09-17T14:23:45;7.35;;;2.95;;
21091;SDS011;10704;42.678;23.288;2022-09-17T14:35:40;11.38;;;3.75;;
21091;SDS011;10704;42.678;23.288;2022-09-17T14:38:30;6.32;;;3.53;;
21091;SDS011;10704;42.678;23.288;2022-09-17T14:44:05;13.15;;;5.57;;
21091;SDS011;10704;42.678;23.288;2022-09-17T14:52:53;16.30;;;7.28;;
21091;SDS011;10704;42.678;23.288;2022-09-17T14:59:08;11.35;;;5.20;;
21091;SDS011;10704;42.678;23.288;2022-09-17T15:08:32;6.82;;;4.00;;
21091;SDS011;10704;42.678;23.288;2022-09-17T15:11:02;7.65;;;4.22;;
21091;SDS011;10704;42.678;23.288;2022-09-17T15:13:41;8.32;;;4.10;;
21091;SDS011;10704;42.678;23.288;2022-09-17T15:25:55;17.48;;;7.72;;
21091;SDS011;10704;42.678;23.288;2022-09-17T15:31:29;9.00;;;4.57;;
21091;SDS011;10704;42.678;23.288;2022-09-17T15:33:59;10.05;;;4.20;;
21091;SDS011;10704;42.678;23.288;2022-09-17T15:36:41;6.93;;;3.25;;
21091;SDS011;10704;42.678;23.288;2022-09-17T15:39:49;9.52;;;4.70;;
21091;SDS011;10704;42.678;23.288;2022-09-17T15:42:18;7.30;;;3.85;;
21091;SDS011;10704;42.678;23.288;2022-09-17T15:44:44;9.48;;;4.75;;
21091;SDS011;10704;42.678;23.288;2022-09-17T15:54:45;10.23;;;4.25;;
21091;SDS011;10704;42.678;23.288;2022-09-17T15:57:11;7.35;;;4.40;;
21091;SDS011;10704;42.678;23.288;2022-09-17T16:06:02;9.95;;;4.22;;
21091;SDS011;10704;42.678;23.288;2022-09-17T16:12:53;8.80;;;3.35;;
21091;SDS011;10704;42.678;23.288;2022-09-17T16:15:19;7.85;;;3.50;;
21091;SDS011;10704;42.678;23.288;2022-09-17T16:17:45;8.68;;;4.07;;
21091;SDS011;10704;42.678;23.288;2022-09-17T16:24:00;7.38;;;2.75;;
21091;SDS011;10704;42.678;23.288;2022-09-17T16:26:32;8.90;;;3.60;;
21091;SDS011;10704;42.678;23.288;2022-09-17T16:44:15;10.40;;;5.10;;
21091;SDS011;10704;42.678;23.288;2022-09-17T16:56:18;8.50;;;5.32;;
21091;SDS011;10704;42.678;23.288;2022-09-17T16:58:44;9.02;;;5.40;;
21091;SDS011;10704;42.678;23.288;2022-09-17T17:01:13;7.30;;;3.67;;
21091;SDS011;10704;42.678;23.288;2022-09-17T17:03:40;13.52;;;5.80;;
21091;SDS011;10704;42.678;23.288;2022-09-17T17:13:41;12.00;;;6.18;;
21091;SDS011;10704;42.678;23.288;2022-09-17T17:16:08;14.10;;;6.30;;
21091;SDS011;10704;42.678;23.288;2022-09-17T17:18:54;10.23;;;6.10;;
21091;SDS011;10704;42.678;23.288;2022-09-17T17:21:19;12.43;;;7.15;;
21091;SDS011;10704;42.678;23.288;2022-09-17T17:30:18;9.85;;;5.10;;
21091;SDS011;10704;42.678;23.288;2022-09-17T17:32:47;9.65;;;4.32;;
21091;SDS011;10704;42.678;23.288;2022-09-17T17:35:15;8.88;;;4.18;;
21091;SDS011;10704;42.678;23.288;2022-09-17T17:37:41;6.75;;;4.45;;
21091;SDS011;10704;42.678;23.288;2022-09-17T17:43:55;8.88;;;4.53;;
21091;SDS011;10704;42.678;23.288;2022-09-17T17:46:22;10.02;;;5.68;;
21091;SDS011;10704;42.678;23.288;2022-09-17T17:48:48;14.82;;;8.00;;
21091;SDS011;10704;42.678;23.288;2022-09-17T17:58:54;7.32;;;4.45;;
21091;SDS011;10704;42.678;23.288;2022-09-17T18:01:29;10.98;;;4.07;;
21091;SDS011;10704;42.678;23.288;2022-09-17T18:07:46;10.07;;;3.88;;
21091;SDS011;10704;42.678;23.288;2022-09-17T18:10:20;9.63;;;3.30;;
21091;SDS011;10704;42.678;23.288;2022-09-17T18:12:47;7.75;;;3.65;;
21091;SDS011;10704;42.678;23.288;2022-09-17T18:15:14;8.50;;;3.70;;
21091;SDS011;10704;42.678;23.288;2022-09-17T18:17:41;11.27;;;3.63;;
21091;SDS011;10704;42.678;23.288;2022-09-17T18:20:07;9.50;;;3.42;;
21091;SDS011;10704;42.678;23.288;2022-09-17T18:22:46;6.75;;;3.42;;
21091;SDS011;10704;42.678;23.288;2022-09-17T18:25:12;6.57;;;2.78;;
21091;SDS011;10704;42.678;23.288;2022-09-17T18:27:38;9.63;;;3.80;;
21091;SDS011;10704;42.678;23.288;2022-09-17T18:36:42;6.45;;;2.80;;
21091;SDS011;10704;42.678;23.288;2022-09-17T18:39:11;9.40;;;3.25;;
21091;SDS011;10704;42.678;23.288;2022-09-17T18:41:39;10.43;;;3.33;;
21091;SDS011;10704;42.678;23.288;2022-09-17T18:44:06;8.20;;;3.83;;
21091;SDS011;10704;42.678;23.288;2022-09-17T18:46:32;24.30;;;9.10;;
21091;SDS011;10704;42.678;23.288;2022-09-17T18:49:16;21.75;;;7.90;;
21091;SDS011;10704;42.678;23.288;2022-09-17T18:51:42;21.52;;;9.35;;
21091;SDS011;10704;42.678;23.288;2022-09-17T18:56:56;12.13;;;6.70;;
21091;SDS011;10704;42.678;23.288;2022-09-17T18:59:22;18.95;;;10.43;;
21091;SDS011;10704;42.678;23.288;2022-09-17T19:01:48;12.27;;;7.18;;
21091;SDS011;10704;42.678;23.288;2022-09-17T19:04:14;16.20;;;9.15;;
21091;SDS011;10704;42.678;23.288;2022-09-17T19:17:26;7.75;;;4.07;;
21091;SDS011;10704;42.678;23.288;2022-09-17T19:33:41;13.95;;;7.07;;
21091;SDS011;10704;42.678;23.288;2022-09-17T19:36:13;16.05;;;7.53;;
21091;SDS011;10704;42.678;23.288;2022-09-17T19:38:40;16.33;;;8.10;;
21091;SDS011;10704;42.678;23.288;2022-09-17T19:41:08;15.27;;;8.65;;
21091;SDS011;10704;42.678;23.288;2022-09-17T19:43:36;17.02;;;8.02;;
21091;SDS011;10704;42.678;23.288;2022-09-17T19:46:07;13.48;;;8.15;;
21091;SDS011;10704;42.678;23.288;2022-09-17T19:48:35;13.98;;;6.75;;
21091;SDS011;10704;42.678;23.288;2022-09-17T19:51:02;11.65;;;6.75;;
21091;SDS011;10704;42.678;23.288;2022-09-17T19:53:30;15.20;;;6.80;;
21091;SDS011;10704;42.678;23.288;2022-09-17T19:55:57;10.35;;;4.75;;
21091;SDS011;10704;42.678;23.288;2022-09-17T19:58:23;7.00;;;4.05;;
21091;SDS011;10704;42.678;23.288;2022-09-17T20:00:55;9.65;;;4.55;;
21091;SDS011;10704;42.678;23.288;2022-09-17T20:03:22;15.38;;;5.43;;
21091;SDS011;10704;42.678;23.288;2022-09-17T20:05:49;7.05;;;4.43;;
21091;SDS011;10704;42.678;23.288;2022-09-17T20:08:22;6.40;;;3.42;;
21091;SDS011;10704;42.678;23.288;2022-09-17T20:10:48;8.50;;;3.83;;
21091;SDS011;10704;42.678;23.288;2022-09-17T20:13:16;9.57;;;3.67;;
21091;SDS011;10704;42.678;23.288;2022-09-17T20:15:42;13.80;;;3.67;;
21091;SDS011;10704;42.678;23.288;2022-09-17T20:18:08;14.75;;;2.92;;
21091;SDS011;10704;42.678;23.288;2022-09-17T20:20:37;9.05;;;3.00;;
21091;SDS011;10704;42.678;23.288;2022-09-17T20:23:06;8.48;;;2.97;;
21091;SDS011;10704;42.678;23.288;2022-09-17T20:25:32;8.75;;;3.90;;
21091;SDS011;10704;42.678;23.288;2022-09-17T20:27:58;11.65;;;3.88;;
21091;SDS011;10704;42.678;23.288;2022-09-17T20:30:24;7.85;;;3.13;;
21091;SDS011;10704;42.678;23.288;2022-09-17T20:32:50;7.72;;;4.35;;
21091;SDS011;10704;42.678;23.288;2022-09-17T20:35:18;7.55;;;3.10;;
21091;SDS011;10704;42.678;23.288;2022-09-17T20:37:45;7.60;;;3.00;;
21091;SDS011;10704;42.678;23.288;2022-09-17T20:40:11;8.85;;;3.20;;
21091;SDS011;10704;42.678;23.288;2022-09-17T20:42:37;6.18;;;2.90;;
21091;SDS011;10704;42.678;23.288;2022-09-17T20:48:51;8.85;;;2.78;;
21091;SDS011;10704;42.678;23.288;2022-09-17T20:51:18;6.55;;;2.90;;
21091;SDS011;10704;42.678;23.288;2022-09-17T20:56:38;5.43;;;2.78;;
21091;SDS011;10704;42.678;23.288;2022-09-17T20:59:05;9.57;;;3.65;;
21091;SDS011;10704;42.678;23.288;2022-09-17T21:01:45;4.95;;;2.55;;
21091;SDS011;10704;42.678;23.288;2022-09-17T21:11:51;11.52;;;3.10;;
21091;SDS011;10704;42.678;23.288;2022-09-17T21:18:05;7.70;;;2.42;;
21091;SDS011;10704;42.678;23.288;2022-09-17T21:20:34;6.75;;;2.20;;
21091;SDS011;10704;42.678;23.288;2022-09-17T21:34:38;6.18;;;2.65;;
21091;SDS011;10704;42.678;23.288;2022-09-17T21:37:04;5.40;;;2.58;;
21091;SDS011;10704;42.678;23.288;2022-09-17T21:39:30;11.48;;;2.75;;
21091;SDS011;10704;42.678;23.288;2022-09-17T21:41:59;5.63;;;2.10;;
21091;SDS011;10704;42.678;23.288;2022-09-17T21:48:11;4.22;;;1.58;;
21091;SDS011;10704;42.678;23.288;2022-09-17T21:54:25;8.13;;;2.72;;
21091;SDS011;10704;42.678;23.288;2022-09-17T21:56:51;5.55;;;2.30;;
21091;SDS011;10704;42.678;23.288;2022-09-17T21:59:16;6.88;;;2.47;;
21091;SDS011;10704;42.678;23.288;2022-09-17T22:09:20;11.00;;;5.47;;
21091;SDS011;10704;42.678;23.288;2022-09-17T22:14:35;14.77;;;7.63;;
21091;SDS011;10704;42.678;23.288;2022-09-17T22:17:01;15.35;;;6.90;;
21091;SDS011;10704;42.678;23.288;2022-09-17T22:19:27;9.35;;;6.18;;
21091;SDS011;10704;42.678;23.288;2022-09-17T22:21:54;10.70;;;6.05;;
21091;SDS011;10704;42.678;23.288;2022-09-17T22:24:20;17.55;;;7.93;;
21091;SDS011;10704;42.678;23.288;2022-09-17T22:26:47;15.00;;;8.98;;
21091;SDS011;10704;42.678;23.288;2022-09-17T22:29:16;17.30;;;7.28;;